PWSweather.com
Personal Weather Stations
Station Observations
RAINMAN1
Jacksonville, FL 32224

Jacksonville, FL 32224

Lat: 30.28041649, Lon: -81.46911621

Elevation: 26

Station Type: Tycon TP1080WC

Latest ConditionsUpdated 8:10:01 AM EDT Friday, May 29, 2015
Currently Today's Max Today's Min Today's Average
Temperature 81.5°F27.5°C 82.2°F27.9°C 68.4°F20.2°C 72.3°F22.4°C
Dew Point 68.7°F20.4°C 73.9°F23.3°C 67.8°F19.9°C 69.4°F20.8°C
Winds 3.0 mph E4.8 kmh E 3.5 mph ESE5.6 kmh ESE - 1.0 mph 1.6 kmh
Wind Gusts 6.0 mph9.7 kmh 6.9 mph11.1 kmh - -
Humidity 65% 99% 65% 91%
Pressure 29.82 in1009.8 mb 29.85 in1010.8 mb 29.77 in1008.1 mb -
Hour Temp Dew Point Humidity Winds Wind Gusts Pressure Precip Precip Rate Daily Precip Total
08:10 AM 81.5°F27.5°C 68.7°F20.4°C 65% 3.0 mph E4.8 kmh E 6.0 mph9.7 kmh 29.82 in1009.8 mb 0.00 in0.0 mm 0.00 in0.0 mm 0.00 in0.0 mm
08:05 AM 81.7°F27.6°C 70.1°F21.2°C 68% 2.8 mph E4.5 kmh E 5.4 mph8.7 kmh 29.81 in1009.5 mb 0.00 in0.0 mm 0.00 in0.0 mm 0.00 in0.0 mm
08:00 AM 81.7°F27.6°C 70.1°F21.2°C 68% 3.5 mph ESE5.6 kmh ESE 5.4 mph8.7 kmh 29.81 in1009.5 mb 0.00 in0.0 mm 0.00 in0.0 mm 0.00 in0.0 mm
07:55 AM 82.2°F27.9°C 69.8°F21.0°C 66% 2.5 mph E4.0 kmh E 4.5 mph7.2 kmh 29.81 in1009.5 mb 0.00 in0.0 mm 0.00 in0.0 mm 0.00 in0.0 mm
07:50 AM 82.2°F27.9°C 70.7°F21.5°C 68% 2.1 mph E3.4 kmh E 4.5 mph7.2 kmh 29.81 in1009.5 mb 0.00 in0.0 mm 0.00 in0.0 mm 0.00 in0.0 mm
07:45 AM 81.7°F27.6°C 70.1°F21.2°C 68% 1.5 mph E2.4 kmh E 4.5 mph7.2 kmh 29.81 in1009.5 mb 0.00 in0.0 mm 0.00 in0.0 mm 0.00 in0.0 mm
07:40 AM 81.0°F27.2°C 73.9°F23.3°C 79% 1.1 mph E1.8 kmh E 2.2 mph3.5 kmh 29.80 in1009.1 mb 0.00 in0.0 mm 0.00 in0.0 mm 0.00 in0.0 mm
07:35 AM 79.3°F26.3°C 72.3°F22.4°C 79% 1.4 mph E2.3 kmh E 2.2 mph3.5 kmh 29.80 in1009.1 mb 0.00 in0.0 mm 0.00 in0.0 mm 0.00 in0.0 mm
07:30 AM 77.9°F25.5°C 73.4°F23.0°C 86% 0.4 mph ESE0.6 kmh ESE 2.2 mph3.5 kmh 29.80 in1009.1 mb 0.00 in0.0 mm 0.00 in0.0 mm 0.00 in0.0 mm
07:25 AM 75.9°F24.4°C 73.8°F23.2°C 93% 0.1 mph NE0.2 kmh NE 0.7 mph1.1 kmh 29.80 in1009.1 mb 0.00 in0.0 mm 0.00 in0.0 mm 0.00 in0.0 mm
07:20 AM 73.8°F23.2°C 72.9°F22.7°C 97% 0.1 mph NE0.2 kmh NE 0.7 mph1.1 kmh 29.80 in1009.1 mb 0.00 in0.0 mm 0.00 in0.0 mm 0.00 in0.0 mm
07:15 AM 71.8°F22.1°C 71.5°F21.9°C 99% 0.1 mph NE0.2 kmh NE 0.7 mph1.1 kmh 29.80 in1009.1 mb 0.00 in0.0 mm 0.00 in0.0 mm 0.00 in0.0 mm
07:10 AM 70.5°F21.4°C 70.3°F21.3°C 99% Calm Calm -- 29.80 in1009.1 mb 0.00 in0.0 mm 0.00 in0.0 mm 0.00 in0.0 mm
07:05 AM 69.4°F20.8°C 69.2°F20.7°C 99% Calm Calm -- 29.80 in1009.1 mb 0.00 in0.0 mm 0.00 in0.0 mm 0.00 in0.0 mm
07:00 AM 69.4°F20.8°C 69.2°F20.7°C 99% Calm Calm -- 29.79 in1008.8 mb 0.00 in0.0 mm 0.00 in0.0 mm 0.00 in0.0 mm
06:55 AM 69.3°F20.7°C 68.7°F20.4°C 98% 0.1 mph SW0.2 kmh SW 0.7 mph1.1 kmh 29.79 in1008.8 mb 0.00 in0.0 mm 0.00 in0.0 mm 0.00 in0.0 mm
06:50 AM 69.4°F20.8°C 68.9°F20.5°C 98% 0.1 mph SW0.2 kmh SW 0.7 mph1.1 kmh 29.79 in1008.8 mb 0.00 in0.0 mm 0.00 in0.0 mm 0.00 in0.0 mm
06:45 AM 69.4°F20.8°C 68.9°F20.5°C 98% 0.1 mph SE0.2 kmh SE 3.1 mph5.0 kmh 29.79 in1008.8 mb 0.00 in0.0 mm 0.00 in0.0 mm 0.00 in0.0 mm
06:40 AM 69.4°F20.8°C 68.9°F20.5°C 98% 0.5 mph SE0.8 kmh SE 3.1 mph5.0 kmh 29.79 in1008.8 mb 0.00 in0.0 mm 0.00 in0.0 mm 0.00 in0.0 mm
06:35 AM 69.1°F20.6°C 68.5°F20.3°C 98% 0.8 mph S1.3 kmh S 3.1 mph5.0 kmh 29.79 in1008.8 mb 0.00 in0.0 mm 0.00 in0.0 mm 0.00 in0.0 mm
06:30 AM 69.1°F20.6°C 68.8°F20.4°C 99% 0.5 mph SSW0.8 kmh SSW 1.6 mph2.6 kmh 29.79 in1008.8 mb 0.00 in0.0 mm 0.00 in0.0 mm 0.00 in0.0 mm
06:25 AM 69.1°F20.6°C 68.8°F20.4°C 99% 0.2 mph SE0.3 kmh SE 0.7 mph1.1 kmh 29.78 in1008.5 mb 0.00 in0.0 mm 0.00 in0.0 mm 0.00 in0.0 mm
06:20 AM 68.9°F20.5°C 68.6°F20.3°C 99% 0.5 mph SE0.8 kmh SE 1.6 mph2.6 kmh 29.78 in1008.5 mb 0.00 in0.0 mm 0.00 in0.0 mm 0.00 in0.0 mm
06:15 AM 68.7°F20.4°C 68.5°F20.3°C 99% 0.5 mph SE0.8 kmh SE 1.6 mph2.6 kmh 29.78 in1008.5 mb 0.00 in0.0 mm 0.00 in0.0 mm 0.00 in0.0 mm
06:10 AM 68.7°F20.4°C 68.5°F20.3°C 99% 0.1 mph NE0.2 kmh NE 0.7 mph1.1 kmh 29.78 in1008.5 mb 0.00 in0.0 mm 0.00 in0.0 mm 0.00 in0.0 mm
06:05 AM 68.4°F20.2°C 68.1°F20.1°C 99% 0.1 mph W0.2 kmh W 0.7 mph1.1 kmh 29.78 in1008.5 mb 0.00 in0.0 mm 0.00 in0.0 mm 0.00 in0.0 mm
06:00 AM 68.4°F20.2°C 68.1°F20.1°C 99% 0.3 mph SW0.5 kmh SW 0.7 mph1.1 kmh 29.78 in1008.5 mb 0.00 in0.0 mm 0.00 in0.0 mm 0.00 in0.0 mm
05:55 AM 68.4°F20.2°C 68.1°F20.1°C 99% 0.3 mph S0.5 kmh S 0.7 mph1.1 kmh 29.78 in1008.5 mb 0.00 in0.0 mm 0.00 in0.0 mm 0.00 in0.0 mm
05:50 AM 68.5°F20.3°C 68.3°F20.2°C 99% 0.7 mph SW1.1 kmh SW 1.6 mph2.6 kmh 29.78 in1008.5 mb 0.00 in0.0 mm 0.00 in0.0 mm 0.00 in0.0 mm
05:45 AM 68.4°F20.2°C 68.1°F20.1°C 99% 0.7 mph SSW1.1 kmh SSW 1.6 mph2.6 kmh 29.78 in1008.5 mb 0.00 in0.0 mm 0.00 in0.0 mm 0.00 in0.0 mm
05:40 AM 68.4°F20.2°C 68.1°F20.1°C 99% 0.4 mph SE0.6 kmh SE 1.6 mph2.6 kmh 29.77 in1008.1 mb 0.00 in0.0 mm 0.00 in0.0 mm 0.00 in0.0 mm
05:35 AM 68.4°F20.2°C 68.1°F20.1°C 99% 0.2 mph S0.3 kmh S 0.7 mph1.1 kmh 29.77 in1008.1 mb 0.00 in0.0 mm 0.00 in0.0 mm 0.00 in0.0 mm
05:30 AM 68.4°F20.2°C 68.1°F20.1°C 99% 0.2 mph S0.3 kmh S 0.7 mph1.1 kmh 29.77 in1008.1 mb 0.00 in0.0 mm 0.00 in0.0 mm 0.00 in0.0 mm
05:25 AM 68.5°F20.3°C 68.3°F20.2°C 99% 0.4 mph WSW0.6 kmh WSW 1.6 mph2.6 kmh 29.77 in1008.1 mb 0.00 in0.0 mm 0.00 in0.0 mm 0.00 in0.0 mm
05:20 AM 68.5°F20.3°C 68.3°F20.2°C 99% 0.4 mph W0.6 kmh W 1.6 mph2.6 kmh 29.78 in1008.5 mb 0.00 in0.0 mm 0.00 in0.0 mm 0.00 in0.0 mm
05:15 AM 68.5°F20.3°C 68.3°F20.2°C 99% 0.6 mph NW1.0 kmh NW 1.6 mph2.6 kmh 29.77 in1008.1 mb 0.00 in0.0 mm 0.00 in0.0 mm 0.00 in0.0 mm
05:10 AM 68.5°F20.3°C 68.3°F20.2°C 99% 1.3 mph NW2.1 kmh NW 1.6 mph2.6 kmh 29.77 in1008.1 mb 0.00 in0.0 mm 0.00 in0.0 mm 0.00 in0.0 mm
05:05 AM 68.7°F20.4°C 68.5°F20.3°C 99% 1.0 mph NW1.6 kmh NW 1.6 mph2.6 kmh 29.77 in1008.1 mb 0.00 in0.0 mm 0.00 in0.0 mm 0.00 in0.0 mm
05:00 AM 68.5°F20.3°C 68.3°F20.2°C 99% 0.2 mph WSW0.3 kmh WSW 0.7 mph1.1 kmh 29.77 in1008.1 mb 0.00 in0.0 mm 0.00 in0.0 mm 0.00 in0.0 mm
04:55 AM 68.7°F20.4°C 68.5°F20.3°C 99% 0.3 mph S0.5 kmh S 0.7 mph1.1 kmh 29.77 in1008.1 mb 0.00 in0.0 mm 0.00 in0.0 mm 0.00 in0.0 mm
04:50 AM 68.7°F20.4°C 68.5°F20.3°C 99% 0.3 mph S0.5 kmh S 0.7 mph1.1 kmh 29.77 in1008.1 mb 0.00 in0.0 mm 0.00 in0.0 mm 0.00 in0.0 mm
04:45 AM 69.1°F20.6°C 68.8°F20.4°C 99% 0.1 mph SE0.2 kmh SE 0.7 mph1.1 kmh 29.77 in1008.1 mb 0.00 in0.0 mm 0.00 in0.0 mm 0.00 in0.0 mm
04:40 AM 69.1°F20.6°C 68.5°F20.3°C 98% 0.2 mph E0.3 kmh E 1.6 mph2.6 kmh 29.78 in1008.5 mb 0.00 in0.0 mm 0.00 in0.0 mm 0.00 in0.0 mm
04:35 AM 69.1°F20.6°C 68.5°F20.3°C 98% 0.2 mph E0.3 kmh E 1.6 mph2.6 kmh 29.78 in1008.5 mb 0.00 in0.0 mm 0.00 in0.0 mm 0.00 in0.0 mm
04:30 AM 69.1°F20.6°C 68.2°F20.1°C 97% Calm Calm 0.7 mph1.1 kmh 29.78 in1008.5 mb 0.00 in0.0 mm 0.00 in0.0 mm 0.00 in0.0 mm
04:25 AM 69.4°F20.8°C 68.3°F20.2°C 96% Calm Calm -- 29.78 in1008.5 mb 0.00 in0.0 mm 0.00 in0.0 mm 0.00 in0.0 mm
04:20 AM 69.6°F20.9°C 68.2°F20.1°C 95% Calm Calm -- 29.78 in1008.5 mb 0.00 in0.0 mm 0.00 in0.0 mm 0.00 in0.0 mm
04:15 AM 69.8°F21.0°C 68.0°F20.0°C 94% Calm Calm -- 29.79 in1008.8 mb 0.00 in0.0 mm 0.00 in0.0 mm 0.00 in0.0 mm
04:10 AM 70.2°F21.2°C 68.4°F20.2°C 94% Calm Calm -- 29.78 in1008.5 mb 0.00 in0.0 mm 0.00 in0.0 mm 0.00 in0.0 mm
04:05 AM 70.5°F21.4°C 68.1°F20.1°C 92% Calm Calm -- 29.78 in1008.5 mb 0.00 in0.0 mm 0.00 in0.0 mm 0.00 in0.0 mm
04:00 AM 70.5°F21.4°C 68.1°F20.1°C 92% Calm Calm -- 29.78 in1008.5 mb 0.00 in0.0 mm 0.00 in0.0 mm 0.00 in0.0 mm
03:55 AM 70.5°F21.4°C 68.1°F20.1°C 92% Calm Calm -- 29.78 in1008.5 mb 0.00 in0.0 mm 0.00 in0.0 mm 0.00 in0.0 mm
03:50 AM 70.7°F21.5°C 68.0°F20.0°C 91% 0.2 mph SSE0.3 kmh SSE 1.6 mph2.6 kmh 29.78 in1008.5 mb 0.00 in0.0 mm 0.00 in0.0 mm 0.00 in0.0 mm
03:45 AM 70.5°F21.4°C 67.8°F19.9°C 91% 0.4 mph E0.6 kmh E 1.6 mph2.6 kmh 29.78 in1008.5 mb 0.00 in0.0 mm 0.00 in0.0 mm 0.00 in0.0 mm
03:40 AM 70.5°F21.4°C 67.8°F19.9°C 91% 0.7 mph ENE1.1 kmh ENE 3.8 mph6.1 kmh 29.79 in1008.8 mb 0.00 in0.0 mm 0.00 in0.0 mm 0.00 in0.0 mm
03:35 AM 70.9°F21.6°C 68.5°F20.3°C 92% 0.7 mph E1.1 kmh E 3.8 mph6.1 kmh 29.79 in1008.8 mb 0.00 in0.0 mm 0.00 in0.0 mm 0.00 in0.0 mm
03:30 AM 71.1°F21.7°C 69.0°F20.6°C 93% 0.5 mph SE0.8 kmh SE 2.2 mph3.5 kmh 29.79 in1008.8 mb 0.00 in0.0 mm 0.00 in0.0 mm 0.00 in0.0 mm
03:25 AM 71.2°F21.8°C 68.5°F20.3°C 91% 0.7 mph ESE1.1 kmh ESE 2.2 mph3.5 kmh 29.79 in1008.8 mb 0.00 in0.0 mm 0.00 in0.0 mm 0.00 in0.0 mm
03:20 AM 71.1°F21.7°C 68.3°F20.2°C 91% 0.6 mph E1.0 kmh E 1.6 mph2.6 kmh 29.79 in1008.8 mb 0.00 in0.0 mm 0.00 in0.0 mm 0.00 in0.0 mm
03:15 AM 70.9°F21.6°C 68.5°F20.3°C 92% 0.3 mph E0.5 kmh E 1.6 mph2.6 kmh 29.79 in1008.8 mb 0.00 in0.0 mm 0.00 in0.0 mm 0.00 in0.0 mm
03:10 AM 70.9°F21.6°C 68.5°F20.3°C 92% Calm Calm -- 29.79 in1008.8 mb 0.00 in0.0 mm 0.00 in0.0 mm 0.00 in0.0 mm
03:05 AM 71.6°F22.0°C 68.9°F20.5°C 91% Calm Calm -- 29.79 in1008.8 mb 0.00 in0.0 mm 0.00 in0.0 mm 0.00 in0.0 mm
03:00 AM 71.6°F22.0°C 68.9°F20.5°C 91% Calm Calm -- 29.79 in1008.8 mb 0.00 in0.0 mm 0.00 in0.0 mm 0.00 in0.0 mm
02:55 AM 72.0°F22.2°C 69.2°F20.7°C 91% 0.1 mph NE0.2 kmh NE 0.7 mph1.1 kmh 29.80 in1009.1 mb 0.00 in0.0 mm 0.00 in0.0 mm 0.00 in0.0 mm
02:50 AM 72.1°F22.3°C 68.1°F20.1°C 87% 0.1 mph NE0.2 kmh NE 0.7 mph1.1 kmh 29.80 in1009.1 mb 0.00 in0.0 mm 0.00 in0.0 mm 0.00 in0.0 mm
02:45 AM 72.5°F22.5°C 68.1°F20.1°C 86% 0.6 mph ESE1.0 kmh ESE 1.6 mph2.6 kmh 29.80 in1009.1 mb 0.00 in0.0 mm 0.00 in0.0 mm 0.00 in0.0 mm
02:40 AM 73.0°F22.8°C 69.0°F20.6°C 87% 1.0 mph ESE1.6 kmh ESE 2.2 mph3.5 kmh 29.80 in1009.1 mb 0.00 in0.0 mm 0.00 in0.0 mm 0.00 in0.0 mm
02:35 AM 73.2°F22.9°C 68.8°F20.4°C 86% 1.3 mph SE2.1 kmh SE 3.1 mph5.0 kmh 29.80 in1009.1 mb 0.00 in0.0 mm 0.00 in0.0 mm 0.00 in0.0 mm
02:30 AM 73.6°F23.1°C 68.8°F20.4°C 85% 1.8 mph ESE2.9 kmh ESE 3.1 mph5.0 kmh 29.80 in1009.1 mb 0.00 in0.0 mm 0.00 in0.0 mm 0.00 in0.0 mm
02:25 AM 73.9°F23.3°C 69.2°F20.7°C 85% 1.8 mph E2.9 kmh E 3.1 mph5.0 kmh 29.81 in1009.5 mb 0.00 in0.0 mm 0.00 in0.0 mm 0.00 in0.0 mm
02:20 AM 73.9°F23.3°C 69.2°F20.7°C 85% 1.6 mph ESE2.6 kmh ESE 3.1 mph5.0 kmh 29.81 in1009.5 mb 0.00 in0.0 mm 0.00 in0.0 mm 0.00 in0.0 mm
02:15 AM 74.1°F23.4°C 68.7°F20.4°C 83% 1.2 mph E1.9 kmh E 2.2 mph3.5 kmh 29.82 in1009.8 mb 0.00 in0.0 mm 0.00 in0.0 mm 0.00 in0.0 mm
02:10 AM 74.5°F23.6°C 69.0°F20.6°C 83% 1.4 mph N2.3 kmh N 1.6 mph2.6 kmh 29.82 in1009.8 mb 0.00 in0.0 mm 0.00 in0.0 mm 0.00 in0.0 mm
02:05 AM 74.8°F23.8°C 69.0°F20.6°C 82% 1.7 mph NNE2.7 kmh NNE 3.1 mph5.0 kmh 29.82 in1009.8 mb 0.00 in0.0 mm 0.00 in0.0 mm 0.00 in0.0 mm
02:00 AM 74.8°F23.8°C 69.0°F20.6°C 82% 2.6 mph ESE4.2 kmh ESE 6.9 mph11.1 kmh 29.82 in1009.8 mb 0.00 in0.0 mm 0.00 in0.0 mm 0.00 in0.0 mm
01:55 AM 74.8°F23.8°C 69.0°F20.6°C 82% 3.3 mph ESE5.3 kmh ESE 6.9 mph11.1 kmh 29.82 in1009.8 mb 0.00 in0.0 mm 0.00 in0.0 mm 0.00 in0.0 mm
01:50 AM 75.0°F23.9°C 69.5°F20.8°C 83% 3.2 mph E5.1 kmh E 6.9 mph11.1 kmh 29.82 in1009.8 mb 0.00 in0.0 mm 0.00 in0.0 mm 0.00 in0.0 mm
01:45 AM 75.0°F23.9°C 69.5°F20.8°C 83% 3.3 mph E5.3 kmh E 6.9 mph11.1 kmh 29.82 in1009.8 mb 0.00 in0.0 mm 0.00 in0.0 mm 0.00 in0.0 mm
01:40 AM 74.8°F23.8°C 69.7°F20.9°C 84% 2.9 mph E4.7 kmh E 6.0 mph9.7 kmh 29.82 in1009.8 mb 0.00 in0.0 mm 0.00 in0.0 mm 0.00 in0.0 mm
01:35 AM 74.5°F23.6°C 69.7°F20.9°C 85% 2.8 mph E4.5 kmh E 6.0 mph9.7 kmh 29.83 in1010.2 mb 0.00 in0.0 mm 0.00 in0.0 mm 0.00 in0.0 mm
01:30 AM 74.5°F23.6°C 69.7°F20.9°C 85% 2.7 mph E4.3 kmh E 6.0 mph9.7 kmh 29.83 in1010.2 mb 0.00 in0.0 mm 0.00 in0.0 mm 0.00 in0.0 mm
01:25 AM 74.5°F23.6°C 70.1°F21.2°C 86% 2.3 mph E3.7 kmh E 3.8 mph6.1 kmh 29.82 in1009.8 mb 0.00 in0.0 mm 0.00 in0.0 mm 0.00 in0.0 mm
01:20 AM 74.3°F23.5°C 69.9°F21.1°C 86% 2.2 mph E3.5 kmh E 3.8 mph6.1 kmh 29.83 in1010.2 mb 0.00 in0.0 mm 0.00 in0.0 mm 0.00 in0.0 mm
01:15 AM 74.5°F23.6°C 70.4°F21.3°C 87% 2.1 mph ESE3.4 kmh ESE 3.8 mph6.1 kmh 29.83 in1010.2 mb 0.00 in0.0 mm 0.00 in0.0 mm 0.00 in0.0 mm
01:10 AM 74.5°F23.6°C 70.4°F21.3°C 87% 2.3 mph SE3.7 kmh SE 3.8 mph6.1 kmh 29.83 in1010.2 mb 0.00 in0.0 mm 0.00 in0.0 mm 0.00 in0.0 mm
01:05 AM 74.5°F23.6°C 70.4°F21.3°C 87% 2.3 mph SE3.7 kmh SE 4.5 mph7.2 kmh 29.83 in1010.2 mb 0.00 in0.0 mm 0.00 in0.0 mm 0.00 in0.0 mm
01:00 AM 74.5°F23.6°C 70.4°F21.3°C 87% 2.6 mph E4.2 kmh E 4.5 mph7.2 kmh 29.84 in1010.5 mb 0.00 in0.0 mm 0.00 in0.0 mm 0.00 in0.0 mm
12:55 AM 74.5°F23.6°C 70.7°F21.5°C 88% 2.7 mph E4.3 kmh E 4.5 mph7.2 kmh 29.84 in1010.5 mb 0.00 in0.0 mm 0.00 in0.0 mm 0.00 in0.0 mm
12:50 AM 74.5°F23.6°C 71.1°F21.7°C 89% 2.2 mph ESE3.5 kmh ESE 3.8 mph6.1 kmh 29.84 in1010.5 mb 0.00 in0.0 mm 0.00 in0.0 mm 0.00 in0.0 mm
12:45 AM 74.5°F23.6°C 71.1°F21.7°C 89% 2.1 mph ESE3.4 kmh ESE 3.1 mph5.0 kmh 29.84 in1010.5 mb 0.00 in0.0 mm 0.00 in0.0 mm 0.00 in0.0 mm
12:40 AM 74.5°F23.6°C 71.4°F21.9°C 90% 2.4 mph SE3.9 kmh SE 3.1 mph5.0 kmh 29.84 in1010.5 mb 0.00 in0.0 mm 0.00 in0.0 mm 0.00 in0.0 mm
12:35 AM 74.5°F23.6°C 71.7°F22.1°C 91% 2.0 mph ESE3.2 kmh ESE 3.1 mph5.0 kmh 29.84 in1010.5 mb 0.00 in0.0 mm 0.00 in0.0 mm 0.00 in0.0 mm
12:30 AM 74.3°F23.5°C 71.5°F21.9°C 91% 1.7 mph E2.7 kmh E 3.1 mph5.0 kmh 29.85 in1010.8 mb 0.00 in0.0 mm 0.00 in0.0 mm 0.00 in0.0 mm
12:25 AM 73.9°F23.3°C 71.5°F21.9°C 92% 1.4 mph ENE2.3 kmh ENE 3.1 mph5.0 kmh 29.85 in1010.8 mb 0.00 in0.0 mm 0.00 in0.0 mm 0.00 in0.0 mm
12:20 AM 73.6°F23.1°C 71.5°F21.9°C 93% 0.6 mph E1.0 kmh E 2.2 mph3.5 kmh 29.84 in1010.5 mb 0.00 in0.0 mm 0.00 in0.0 mm 0.00 in0.0 mm
12:15 AM 73.9°F23.3°C 71.5°F21.9°C 92% 0.5 mph SE0.8 kmh SE 1.6 mph2.6 kmh 29.85 in1010.8 mb 0.00 in0.0 mm 0.00 in0.0 mm 0.00 in0.0 mm
12:10 AM 73.9°F23.3°C 71.2°F21.8°C 91% 1.1 mph SE1.8 kmh SE 1.6 mph2.6 kmh 29.84 in1010.5 mb 0.00 in0.0 mm 0.00 in0.0 mm 0.00 in0.0 mm
12:05 AM 73.9°F23.3°C 71.5°F21.9°C 92% 1.4 mph SE2.3 kmh SE 2.2 mph3.5 kmh 29.85 in1010.8 mb 0.00 in0.0 mm 0.00 in0.0 mm 0.00 in0.0 mm
12:00 AM 73.9°F23.3°C 71.5°F21.9°C 92% 1.5 mph ESE2.4 kmh ESE 2.2 mph3.5 kmh 29.85 in1010.8 mb 0.00 in0.0 mm 0.00 in0.0 mm 0.00 in0.0 mm